createdAt,value
2019-03-06T00:06:16.610Z,74.96
2019-03-06T00:08:40.461Z,75.34
2019-03-06T00:11:53.262Z,75.99
2019-03-06T00:14:22.691Z,76.05
2019-03-06T00:16:51.845Z,76.02
2019-03-06T00:19:26.161Z,77.33
2019-03-06T00:21:58.102Z,76.82
2019-03-06T00:24:33.565Z,76.73
2019-03-06T00:27:04.109Z,76.29
2019-03-06T00:29:33.320Z,76.88
2019-03-06T00:32:04.414Z,77.61
2019-03-06T00:34:35.213Z,77.94
2019-03-06T00:37:08.126Z,78.40
2019-03-06T00:39:55.061Z,78.49
2019-03-06T00:42:24.390Z,78.89
2019-03-06T00:48:26.521Z,80.72
2019-03-06T00:50:56.290Z,79.52
2019-03-06T00:54:13.518Z,79.75
2019-03-06T00:56:49.927Z,79.79
2019-03-06T00:59:25.760Z,80.01
2019-03-06T01:01:56.326Z,80.00
2019-03-06T01:04:26.515Z,80.25
2019-03-06T01:06:55.824Z,81.71
2019-03-06T01:09:25.050Z,82.33
2019-03-06T01:11:54.118Z,82.22
2019-03-06T01:14:23.292Z,82.11
2019-03-06T01:16:52.502Z,82.43
2019-03-06T01:19:21.546Z,83.06
2019-03-06T01:21:50.695Z,82.81
2019-03-06T01:24:19.911Z,82.60
2019-03-06T01:26:48.971Z,83.42
2019-03-06T01:29:18.117Z,83.06
2019-03-06T01:31:47.258Z,83.36
2019-03-06T01:34:28.272Z,83.65
2019-03-06T01:37:22.702Z,83.90
2019-03-06T01:40:02.220Z,83.97
2019-03-06T01:42:39.558Z,84.76
2019-03-06T01:45:10.728Z,84.52
2019-03-06T01:47:39.880Z,84.72
2019-03-06T01:50:15.111Z,84.93
2019-03-06T01:52:44.227Z,84.93
2019-03-06T01:55:14.703Z,85.18
2019-03-06T01:57:43.834Z,84.97
2019-03-06T02:00:16.104Z,85.66
2019-03-06T02:02:45.313Z,86.10
2019-03-06T02:05:14.419Z,86.51
2019-03-06T02:07:43.603Z,86.83
2019-03-06T02:10:13.079Z,85.97
2019-03-06T02:12:42.221Z,87.26
2019-03-06T02:15:12.795Z,86.67
2019-03-06T02:17:41.867Z,86.36
2019-03-06T02:20:12.469Z,87.64
2019-03-06T02:22:41.635Z,88.90
2019-03-06T02:25:10.814Z,87.42
2019-03-06T02:27:39.912Z,87.41
2019-03-06T02:30:12.484Z,87.77
2019-03-06T02:32:41.567Z,87.05
2019-03-06T02:35:10.777Z,86.37
2019-03-06T02:37:39.860Z,87.45
2019-03-06T02:40:09.035Z,87.21
2019-03-06T02:42:38.220Z,87.79
2019-03-06T02:45:08.780Z,87.22
2019-03-06T02:47:37.896Z,86.91
2019-03-06T02:50:08.297Z,86.82
2019-03-06T02:52:37.490Z,88.26
2019-03-06T02:55:07.001Z,87.46
2019-03-06T02:57:36.089Z,87.03
2019-03-06T03:00:24.829Z,87.27
2019-03-06T03:03:12.197Z,87.62
2019-03-06T03:05:49.944Z,87.49
2019-03-06T03:08:19.096Z,87.43
2019-03-06T03:10:48.235Z,87.68
2019-03-06T03:13:17.412Z,87.31
2019-03-06T03:15:46.561Z,86.87
2019-03-06T03:18:15.654Z,87.64
2019-03-06T03:20:44.848Z,87.39
2019-03-06T03:23:14.113Z,87.63
2019-03-06T03:25:43.402Z,87.98
2019-03-06T03:28:12.598Z,88.30
2019-03-06T03:30:41.755Z,88.01
2019-03-06T03:33:11.002Z,88.51
2019-03-06T03:35:40.369Z,88.05
2019-03-06T03:38:09.621Z,88.01
2019-03-06T03:40:38.912Z,88.00
2019-03-06T03:43:08.133Z,88.34
2019-03-06T03:45:37.358Z,87.90
2019-03-06T03:48:07.082Z,88.19
2019-03-06T03:50:36.567Z,88.12
2019-03-06T03:53:05.740Z,88.03
2019-03-06T03:55:34.935Z,88.00
2019-03-06T03:58:04.349Z,88.04
2019-03-06T04:00:33.533Z,88.46
2019-03-06T04:03:02.915Z,88.59
2019-03-06T04:05:32.136Z,88.21
2019-03-06T04:08:01.448Z,88.29
2019-03-06T04:10:30.794Z,88.38
2019-03-06T04:13:00.127Z,88.96
2019-03-06T04:15:29.288Z,89.79
2019-03-06T04:17:58.460Z,89.22
2019-03-06T04:20:27.894Z,88.57
2019-03-06T04:22:57.042Z,88.34
2019-03-06T04:25:26.320Z,88.18
2019-03-06T04:27:55.457Z,87.96
2019-03-06T04:30:24.735Z,88.15
2019-03-06T04:32:54.045Z,88.05
2019-03-06T04:35:23.334Z,88.14
2019-03-06T04:37:52.506Z,88.10
2019-03-06T04:40:21.631Z,87.89
2019-03-06T04:42:50.779Z,87.68
2019-03-06T04:45:19.906Z,87.56
2019-03-06T04:47:49.232Z,87.58
2019-03-06T04:50:50.394Z,87.72
2019-03-06T04:53:22.266Z,87.65
2019-03-06T04:55:55.639Z,87.59
2019-03-06T04:58:34.256Z,87.50
2019-03-06T05:01:21.104Z,87.46
2019-03-06T05:05:33.472Z,87.30
2019-03-06T05:07:04.832Z,87.41
2019-03-06T05:09:33.762Z,87.46
2019-03-06T05:12:10.899Z,87.52
2019-03-06T05:14:47.174Z,87.60
2019-03-06T05:17:36.436Z,87.39
2019-03-06T05:20:13.643Z,87.64
2019-03-06T05:23:00.957Z,87.82
2019-03-06T05:25:49.642Z,87.41
2019-03-06T05:28:42.539Z,87.25
2019-03-06T05:31:18.400Z,87.13
2019-03-06T05:33:51.945Z,86.95
2019-03-06T05:36:47.476Z,87.13
2019-03-06T05:39:16.611Z,87.65
2019-03-06T05:41:45.714Z,87.29
2019-03-06T05:44:15.097Z,87.64
2019-03-06T05:46:44.337Z,87.49
2019-03-06T05:49:15.880Z,87.69
2019-03-06T05:51:44.995Z,87.32
2019-03-06T05:54:14.025Z,87.29
2019-03-06T05:57:12.430Z,87.05
2019-03-06T05:59:44.413Z,87.34
2019-03-06T06:02:14.115Z,86.92
2019-03-06T06:04:42.992Z,86.77
2019-03-06T06:10:25.253Z,85.72
2019-03-06T06:13:21.219Z,86.31
2019-03-06T06:15:48.412Z,86.08
2019-03-06T06:21:49.628Z,86.22
2019-03-06T06:29:15.915Z,85.67
2019-03-06T06:35:22.561Z,85.55
2019-03-06T06:38:15.853Z,85.59
2019-03-06T06:40:43.065Z,85.69
2019-03-06T06:44:01.469Z,85.70
2019-03-06T06:49:57.063Z,84.36
2019-03-06T06:53:25.339Z,85.21
2019-03-06T06:56:18.633Z,84.90
2019-03-06T06:59:32.107Z,84.66
2019-03-06T07:02:38.923Z,84.79
2019-03-06T07:05:27.993Z,83.31
2019-03-06T07:08:16.147Z,83.90
2019-03-06T07:11:07.283Z,83.83
2019-03-06T07:14:08.094Z,83.94
2019-03-06T07:17:11.525Z,83.68
2019-03-06T07:19:49.589Z,83.48
2019-03-06T07:22:46.692Z,83.41
2019-03-06T07:25:35.283Z,83.18
2019-03-06T07:28:10.509Z,82.54
2019-03-06T07:30:57.281Z,83.05
2019-03-06T07:33:37.997Z,82.99
2019-03-06T07:36:32.000Z,82.91
2019-03-06T07:39:10.322Z,82.57
2019-03-06T07:41:54.657Z,82.66
2019-03-06T07:44:42.937Z,82.80
2019-03-06T07:47:31.825Z,82.52
2019-03-06T07:50:13.923Z,82.43
2019-03-06T07:53:07.294Z,82.64
2019-03-06T07:55:53.861Z,81.57
2019-03-06T07:58:51.284Z,81.75
2019-03-06T08:01:20.527Z,81.29
2019-03-06T08:04:11.984Z,80.74
2019-03-06T08:06:42.705Z,80.78
2019-03-06T08:09:16.018Z,80.55
2019-03-06T08:12:04.263Z,80.50
2019-03-06T08:14:43.352Z,79.69
2019-03-06T08:17:46.491Z,78.30
2019-03-06T08:20:46.681Z,76.58
2019-03-06T08:23:30.015Z,77.63
2019-03-06T08:25:59.355Z,77.55
2019-03-06T08:28:28.520Z,77.49
2019-03-06T08:31:17.086Z,77.22
2019-03-06T08:33:46.182Z,77.27
2019-03-06T08:36:15.374Z,77.12
2019-03-06T08:38:44.507Z,76.99
2019-03-06T08:41:13.673Z,76.76
2019-03-06T08:43:42.837Z,76.49
2019-03-06T08:46:33.910Z,75.09
2019-03-06T08:49:24.546Z,75.89
2019-03-06T08:52:03.354Z,74.57
2019-03-06T08:54:48.050Z,74.29
2019-03-06T08:57:34.721Z,73.71
2019-03-06T09:00:31.693Z,72.65
2019-03-06T09:03:35.934Z,71.78
2019-03-06T09:06:21.706Z,72.54
2019-03-06T09:09:02.187Z,70.49
2019-03-06T09:11:42.713Z,70.20
2019-03-06T09:14:22.492Z,70.73
2019-03-06T09:17:00.751Z,69.42
2019-03-06T09:19:43.171Z,69.27
2019-03-06T09:22:18.503Z,69.38
2019-03-06T09:25:06.665Z,68.77
2019-03-06T09:28:04.032Z,68.36
2019-03-06T09:30:41.072Z,68.15
2019-03-06T09:33:34.341Z,68.28
2019-03-06T09:36:25.251Z,68.02
2019-03-06T09:39:05.413Z,67.74
2019-03-06T09:41:59.589Z,68.01
2019-03-06T09:44:59.193Z,66.29
2019-03-06T09:47:50.052Z,66.71
2019-03-06T09:50:25.869Z,64.58
2019-03-06T09:53:29.078Z,65.37
2019-03-06T09:56:06.271Z,66.17
2019-03-06T09:58:47.781Z,65.59
2019-03-06T10:01:51.307Z,66.08
2019-03-06T10:04:45.393Z,67.42
2019-03-06T10:07:45.510Z,67.53
2019-03-06T10:14:20.510Z,67.46
2019-03-06T10:17:25.032Z,67.49
2019-03-06T10:19:56.939Z,66.17
2019-03-06T10:22:26.270Z,65.68
2019-03-06T10:24:55.729Z,64.25
2019-03-06T10:31:38.580Z,64.03
2019-03-06T10:34:08.299Z,64.00
2019-03-06T10:37:21.565Z,63.78
2019-03-06T10:40:21.878Z,62.67
2019-03-06T10:42:50.903Z,61.66
2019-03-06T10:45:20.013Z,60.15
2019-03-06T10:47:48.996Z,60.33
2019-03-06T10:50:26.294Z,59.62
2019-03-06T10:52:47.096Z,60.26
2019-03-06T10:55:16.329Z,59.21
2019-03-06T10:57:47.972Z,59.50
2019-03-06T11:00:22.675Z,59.24
2019-03-06T11:02:51.598Z,59.29
2019-03-06T11:05:31.337Z,59.77
2019-03-06T11:08:03.557Z,58.65
2019-03-06T11:10:33.806Z,58.01
2019-03-06T11:13:03.494Z,58.40
2019-03-06T11:15:32.636Z,57.33
2019-03-06T11:18:01.840Z,57.85
2019-03-06T11:20:31.481Z,58.48
2019-03-06T11:23:01.698Z,57.34
2019-03-06T11:25:46.377Z,56.41
2019-03-06T11:28:54.723Z,55.92
2019-03-06T11:31:26.086Z,55.55
2019-03-06T11:33:58.410Z,52.76
2019-03-06T11:36:27.698Z,53.18
2019-03-06T11:39:03.139Z,53.68
2019-03-06T11:41:32.333Z,52.50
2019-03-06T11:44:04.726Z,53.46
2019-03-06T11:46:33.846Z,52.62
2019-03-06T11:49:03.772Z,54.10
2019-03-06T11:51:32.009Z,55.00
2019-03-06T11:54:33.095Z,54.40
2019-03-06T11:57:02.150Z,53.65
2019-03-06T11:59:31.088Z,53.45
2019-03-06T12:02:00.055Z,54.53
2019-03-06T12:04:29.441Z,54.04
2019-03-06T12:07:24.343Z,53.36
2019-03-06T12:09:53.061Z,53.65
2019-03-06T12:12:38.982Z,53.57
2019-03-06T12:15:10.575Z,53.93
2019-03-06T12:17:39.725Z,53.11
2019-03-06T12:20:08.920Z,54.10
2019-03-06T12:23:21.992Z,54.78
2019-03-06T12:26:19.280Z,54.05
2019-03-06T12:29:06.367Z,54.61
2019-03-06T12:31:51.303Z,53.77
2019-03-06T12:34:54.579Z,54.68
2019-03-06T12:37:50.896Z,55.07
2019-03-06T12:41:09.154Z,54.78
2019-03-06T12:43:38.369Z,53.87
2019-03-06T12:46:24.448Z,56.53
2019-03-06T12:49:16.576Z,57.05
2019-03-06T12:51:54.357Z,57.21
2019-03-06T12:54:17.347Z,58.36
2019-03-06T12:56:48.615Z,58.30
2019-03-06T12:59:17.704Z,58.71
2019-03-06T13:01:46.674Z,59.41
2019-03-06T13:04:27.298Z,59.45
2019-03-06T13:07:59.558Z,59.18
2019-03-06T13:10:12.355Z,59.98
2019-03-06T13:12:41.248Z,60.33
2019-03-06T13:15:12.911Z,60.85
2019-03-06T13:17:41.939Z,61.07
2019-03-06T13:20:11.305Z,60.90
2019-03-06T13:22:40.473Z,61.79
2019-03-06T13:25:09.980Z,60.84
2019-03-06T13:27:38.944Z,61.43
2019-03-06T13:30:10.121Z,62.29
2019-03-06T13:32:58.401Z,63.07
2019-03-06T13:35:27.414Z,62.68
2019-03-06T13:37:56.383Z,63.31
2019-03-06T13:41:19.541Z,63.61
2019-03-06T13:44:06.712Z,64.41
2019-03-06T13:46:58.066Z,65.41
2019-03-06T13:49:38.963Z,65.65
2019-03-06T13:52:13.269Z,64.79
2019-03-06T13:54:49.305Z,65.02
2019-03-06T13:57:20.264Z,65.31
2019-03-06T13:59:56.288Z,64.36
2019-03-06T14:02:43.711Z,63.35
2019-03-06T14:05:15.997Z,63.58
2019-03-06T14:07:56.740Z,62.74
2019-03-06T14:10:37.667Z,62.70
2019-03-06T14:13:25.943Z,62.26
2019-03-06T14:16:13.326Z,62.45
2019-03-06T14:19:36.661Z,61.59
2019-03-06T14:22:01.014Z,62.72
2019-03-06T14:24:49.460Z,61.83
2019-03-06T14:27:35.503Z,60.88
2019-03-06T14:30:43.161Z,60.71
2019-03-06T14:33:13.162Z,59.95
2019-03-06T14:35:56.761Z,60.37
2019-03-06T14:38:34.005Z,60.11
2019-03-06T14:41:13.089Z,59.90
2019-03-06T14:43:56.262Z,58.61
2019-03-06T14:46:41.318Z,59.36
2019-03-06T14:49:38.430Z,60.05
2019-03-06T14:52:31.421Z,60.01
2019-03-06T14:55:33.097Z,61.36
2019-03-06T14:58:13.436Z,61.29
2019-03-06T15:01:21.891Z,62.47
2019-03-06T15:04:15.034Z,62.59
2019-03-06T15:06:59.640Z,61.99
2019-03-06T15:10:10.537Z,62.48
2019-03-06T15:12:51.060Z,62.02
2019-03-06T15:15:50.523Z,62.85
2019-03-06T15:18:54.529Z,62.85
2019-03-06T15:21:42.935Z,63.08
2019-03-06T15:24:53.894Z,62.63
2019-03-06T15:27:55.624Z,62.88
2019-03-06T15:30:23.452Z,63.72
2019-03-06T15:33:32.032Z,63.99
2019-03-06T15:36:24.031Z,64.39
2019-03-06T15:39:18.596Z,64.22
2019-03-06T15:42:02.233Z,63.43
2019-03-06T15:44:46.010Z,63.72
2019-03-06T15:47:21.705Z,63.83
2019-03-06T15:49:55.547Z,64.38
2019-03-06T15:52:27.478Z,64.86
2019-03-06T15:55:14.743Z,64.46
2019-03-06T15:57:49.613Z,64.21
2019-03-06T16:00:45.678Z,64.39
2019-03-06T16:03:41.343Z,64.30
2019-03-06T16:06:20.597Z,64.62
2019-03-06T16:09:26.884Z,64.65
2019-03-06T16:11:55.959Z,63.74
2019-03-06T16:15:01.808Z,63.88
2019-03-06T16:17:56.279Z,63.16
2019-03-06T16:20:54.201Z,63.11
2019-03-06T16:23:27.650Z,62.76
2019-03-06T16:26:04.272Z,63.11
2019-03-06T16:29:07.347Z,62.38
2019-03-06T16:31:57.844Z,63.22
2019-03-06T16:37:46.681Z,63.65
2019-03-06T16:40:30.543Z,65.13
2019-03-06T16:43:28.881Z,65.46
2019-03-06T16:46:51.001Z,64.87
2019-03-06T16:48:55.850Z,65.99
2019-03-06T16:51:25.162Z,65.39
2019-03-06T16:53:54.575Z,66.81
2019-03-06T16:56:23.813Z,67.39
2019-03-06T16:58:53.343Z,69.01
2019-03-06T17:01:22.568Z,69.39
2019-03-06T17:03:51.871Z,69.75
2019-03-06T17:06:21.876Z,70.63
2019-03-06T17:08:51.130Z,71.53
2019-03-06T17:15:52.775Z,73.23
2019-03-06T17:19:12.292Z,74.52
2019-03-06T17:22:16.367Z,75.85
2019-03-06T17:24:58.109Z,76.40
2019-03-06T17:27:43.636Z,78.30
2019-03-06T17:30:17.650Z,78.10
2019-03-06T17:33:00.443Z,78.24
2019-03-06T17:35:30.042Z,79.61
2019-03-06T17:38:51.157Z,78.20
2019-03-06T17:41:20.099Z,78.21
2019-03-06T17:44:36.833Z,78.23
2019-03-06T17:47:36.425Z,79.52
2019-03-06T17:50:08.827Z,79.35
2019-03-06T17:53:01.804Z,80.09
2019-03-06T17:55:30.724Z,80.45
2019-03-06T17:58:01.760Z,80.89
2019-03-06T18:00:38.899Z,81.92
2019-03-06T18:03:07.676Z,82.11
2019-03-06T18:06:04.462Z,82.49
2019-03-06T18:08:43.156Z,81.70
2019-03-06T18:11:27.077Z,82.18
2019-03-06T18:14:21.072Z,82.90
2019-03-06T18:16:50.162Z,82.82
2019-03-06T18:19:19.067Z,83.38
2019-03-06T18:21:48.119Z,83.37
2019-03-06T18:24:17.074Z,83.78
2019-03-06T18:27:02.140Z,83.81
2019-03-06T18:29:31.002Z,83.44
2019-03-06T18:31:59.928Z,82.54
2019-03-06T18:34:30.372Z,83.56
2019-03-06T18:37:29.125Z,83.63
2019-03-06T18:43:55.021Z,82.92
2019-03-06T18:49:26.341Z,82.94
2019-03-06T18:52:03.514Z,82.74
2019-03-06T18:54:32.420Z,83.04
2019-03-06T18:57:05.159Z,83.05
2019-03-06T19:00:01.784Z,82.68
2019-03-06T19:02:33.878Z,82.64
2019-03-06T19:05:03.313Z,82.38
2019-03-06T19:07:32.719Z,82.23
2019-03-06T19:10:02.135Z,82.38
2019-03-06T19:14:13.080Z,82.25
2019-03-06T19:16:30.758Z,81.63
2019-03-06T19:18:59.870Z,81.53
2019-03-06T19:21:28.815Z,81.40
2019-03-06T19:23:57.781Z,82.01
2019-03-06T19:27:15.304Z,81.80
2019-03-06T19:30:05.475Z,81.24
2019-03-06T19:33:21.246Z,81.68
2019-03-06T19:46:53.076Z,82.00
2019-03-06T19:49:22.108Z,82.33
2019-03-06T19:51:51.881Z,82.47
2019-03-06T19:54:20.181Z,82.37
2019-03-06T19:56:49.216Z,82.04
2019-03-06T19:59:45.827Z,81.62
2019-03-06T20:02:16.123Z,82.54
2019-03-06T20:05:24.048Z,81.46
2019-03-06T20:08:31.832Z,81.34
2019-03-06T20:11:13.545Z,80.67
2019-03-06T20:14:37.721Z,81.35
2019-03-06T20:17:21.675Z,81.21
2019-03-06T20:20:09.786Z,80.99
2019-03-06T20:22:38.788Z,80.62
2019-03-06T20:25:07.968Z,80.29
2019-03-06T20:27:38.848Z,80.09
2019-03-06T20:33:42.355Z,80.08
2019-03-06T20:36:33.773Z,80.95
2019-03-06T20:40:27.605Z,80.67
2019-03-06T20:42:54.411Z,80.64
2019-03-06T20:45:26.072Z,80.83
2019-03-06T20:47:54.983Z,81.12
2019-03-06T20:51:00.484Z,81.52
2019-03-06T20:54:18.277Z,81.58
2019-03-06T21:00:21.222Z,82.27
2019-03-06T21:03:29.828Z,81.93
2019-03-06T21:06:06.010Z,80.86
2019-03-06T21:08:34.889Z,82.08
2019-03-06T21:11:03.907Z,82.02
2019-03-06T21:13:32.834Z,82.49
2019-03-06T21:16:04.756Z,82.60
2019-03-06T21:18:39.623Z,83.04
2019-03-06T21:24:41.047Z,83.24
2019-03-06T21:27:24.551Z,83.43
2019-03-06T21:29:54.179Z,83.14
2019-03-06T21:32:23.753Z,82.96
2019-03-06T21:34:52.959Z,83.69
2019-03-06T21:37:22.387Z,83.73
2019-03-06T21:39:51.923Z,83.27
2019-03-06T21:42:21.261Z,83.47
2019-03-06T21:44:50.705Z,83.80
2019-03-06T21:47:20.059Z,82.88
2019-03-06T21:49:51.181Z,84.04
2019-03-06T21:52:20.674Z,83.86
2019-03-06T21:54:50.047Z,84.41
2019-03-06T21:57:19.395Z,84.45
2019-03-06T21:59:48.775Z,84.42
2019-03-06T22:02:18.296Z,84.33
2019-03-06T22:04:47.653Z,84.17
2019-03-06T22:07:17.107Z,84.00
2019-03-06T22:09:46.362Z,84.65
2019-03-06T22:12:15.715Z,84.87
2019-03-06T22:14:45.200Z,84.33
2019-03-06T22:17:14.597Z,84.33
2019-03-06T22:19:44.049Z,83.96
2019-03-06T22:22:13.538Z,83.96
2019-03-06T22:24:42.925Z,83.94
2019-03-06T22:27:12.172Z,84.35
2019-03-06T22:29:41.572Z,84.03
2019-03-06T22:32:10.961Z,83.89
2019-03-06T22:34:40.380Z,83.80
2019-03-06T22:37:09.846Z,84.00
2019-03-06T22:39:39.154Z,83.71
2019-03-06T22:42:08.678Z,83.53
2019-03-06T22:44:38.024Z,83.66
2019-03-06T22:47:07.561Z,83.64
2019-03-06T22:49:36.886Z,83.04
2019-03-06T22:52:06.484Z,81.81
2019-03-06T22:54:38.527Z,82.26
2019-03-06T22:57:07.944Z,81.67
2019-03-06T22:59:37.479Z,82.27
2019-03-06T23:02:06.970Z,82.75
2019-03-06T23:04:36.356Z,82.74
2019-03-06T23:07:05.799Z,82.31
2019-03-06T23:09:35.287Z,82.41
2019-03-06T23:12:04.745Z,82.49
2019-03-06T23:14:34.050Z,82.53
2019-03-06T23:17:03.401Z,82.11
2019-03-06T23:19:32.897Z,82.17
2019-03-06T23:22:02.326Z,82.28
2019-03-06T23:24:31.663Z,81.59
2019-03-06T23:27:00.926Z,81.84
2019-03-06T23:29:30.287Z,81.77
2019-03-06T23:32:00.030Z,81.79
2019-03-06T23:34:29.447Z,81.44
2019-03-06T23:36:58.795Z,81.44
2019-03-06T23:39:28.136Z,81.34
2019-03-06T23:41:57.589Z,81.16
2019-03-06T23:44:26.906Z,81.15
2019-03-06T23:46:56.677Z,80.68
2019-03-06T23:49:26.235Z,80.85
2019-03-06T23:52:10.633Z,80.50
2019-03-06T23:54:40.081Z,80.59
2019-03-06T23:57:09.685Z,80.66
2019-03-06T23:59:39.140Z,80.43
